Pelagos — SZSW — position and weather

sailwx.info

Track history (hours):
 
Tides and Currents Weather Stations Pressure Air Temp Water Temp Dewpoint Dewpoint Depression Visibility Wind Speed Wind Dir Waves Ship Positions

Pelagos

Last reported at 2018-Apr-23 13:07 UTC. Time now 2018-Apr-23 17:36 UTC.
Position N 55°23' E 011°02'.

; draft 14 m.

Type: Ship (hazmat cat C). MMSI: 240335000.

Date/timePositionNaut miles runAvg speedWind from/ knotsBaromVisibWave heightAir tempDewpointWater temp
2018-Apr-23 13:07N 55°23' E 011°02'212.3
2018-Apr-23 12:59N 55°21' E 011°02'612.1
2018-Apr-23 12:30N 55°15' E 011°05'510.5
2018-Apr-23 12:00N 55°10' E 011°02'612.0
2018-Apr-23 11:30N 55°05' E 010°59'612.0
2018-Apr-23 11:01N 54°59' E 010°58'510.4
2018-Apr-23 10:30N 54°55' E 010°52'510.5
2018-Apr-23 10:00N 54°50' E 010°50'612.1
2018-Apr-23 09:30N 54°44' E 010°47'510.0
2018-Apr-23 09:00N 54°39' E 010°50'611.8
2018-Apr-23 08:30N 54°36' E 010°59'612.1
2018-Apr-23 08:00N 54°36' E 011°09'612.3
2018-Apr-23 07:30N 54°34' E 011°19'612.1
2018-Apr-23 07:00N 54°31' E 011°28'612.1
2018-Apr-23 06:30N 54°28' E 011°38'611.9
2018-Apr-23 05:58N 54°26' E 011°48'612.1
2018-Apr-23 05:30N 54°26' E 011°58'612.0
2018-Apr-23 04:59N 54°26' E 012°09'510.8
2018-Apr-23 04:30N 54°31' E 012°13'5410.7
2018-Apr-22 23:27N 54°58' E 013°34'610.6
2018-Apr-22 22:50N 55°01' E 013°45'510.9
2018-Apr-22 22:20N 55°02' E 013°54'511.0
2018-Apr-22 21:53N 55°04' E 014°02'410.2
2018-Apr-22 21:30N 55°07' E 014°07'510.5
2018-Apr-22 21:00N 55°11' E 014°13'610.7
2018-Apr-22 20:29N 55°15' E 014°19'511.1
2018-Apr-22 20:00N 55°19' E 014°25'611.1
2018-Apr-22 19:30N 55°23' E 014°31'510.7
2018-Apr-22 19:00N 55°27' E 014°38'611.1
2018-Apr-22 18:30N 55°30' E 014°46'611.2
2018-Apr-22 18:00N 55°32' E 014°55'511.0
2018-Apr-22 17:31N 55°35' E 015°04'511.0
2018-Apr-22 17:01N 55°37' E 015°13'611.1
2018-Apr-22 16:31N 55°39' E 015°22'611.1
2018-Apr-22 16:00N 55°41' E 015°31'510.6
2018-Apr-22 15:30N 55°42' E 015°41'510.7
2018-Apr-22 15:00N 55°43' E 015°50'511.0
2018-Apr-22 14:30N 55°44' E 015°59'510.9
2018-Apr-22 14:01N 55°45' E 016°09'510.9
2018-Apr-22 13:31N 55°47' E 016°18'611.0
2018-Apr-22 13:01N 55°48' E 016°27'511.0
2018-Apr-22 12:31N 55°49' E 016°37'510.8
2018-Apr-22 12:01N 55°51' E 016°46'510.7
2018-Apr-22 11:30N 55°52' E 016°55'510.7
2018-Apr-22 11:01N 55°54' E 017°05'29410.4
2018-Apr-21 06:42N 59°36' E 023°05'310.5
2018-Apr-21 06:27N 59°37' E 023°10'510.6
2018-Apr-21 06:00N 59°38' E 023°19'510.7
2018-Apr-21 05:31N 59°39' E 023°29'610.9
2018-Apr-21 05:00N 59°41' E 023°40'510.7
2018-Apr-21 04:31N 59°42' E 023°50'510.3
2018-Apr-21 04:00N 59°44' E 023°60'610.5
2018-Apr-21 03:27N 59°45' E 024°11'510.6
2018-Apr-21 03:00N 59°47' E 024°20'510.5
2018-Apr-21 02:30N 59°48' E 024°30'510.4
2018-Apr-21 02:00N 59°49' E 024°40'510.3
2018-Apr-21 01:30N 59°50' E 024°50'510.3
2018-Apr-21 01:00N 59°51' E 024°60'510.3
2018-Apr-21 00:30N 59°52' E 025°10'510.3
2018-Apr-21 00:00N 59°53' E 025°20'2710.7
2018-Apr-20 21:31N 59°58' E 026°12'011.0
2018-Apr-20 21:30N 59°58' E 026°12'611.1
2018-Apr-20 21:00N 59°60' E 026°23'510.6
2018-Apr-20 20:30N 60°01' E 026°33'510.5
2018-Apr-20 20:01N 60°01' E 026°44'510.9
2018-Apr-20 19:31N 59°60' E 026°54'510.6
2018-Apr-20 19:00N 59°60' E 027°05'510.9
2018-Apr-20 18:30N 60°03' E 027°14'611.1
2018-Apr-20 18:00N 60°06' E 027°24'611.3
2018-Apr-20 17:30N 60°08' E 027°33'611.2
2018-Apr-20 17:00N 60°11' E 027°43'510.4
2018-Apr-20 16:30N 60°11' E 027°53'611.4
2018-Apr-20 16:00N 60°10' E 028°04'611.3
2018-Apr-20 15:30N 60°08' E 028°15'510.1
2018-Apr-20 15:00N 60°08' E 028°26'611.1
2018-Apr-20 14:30N 60°09' E 028°36'510.2
2018-Apr-20 14:00N 60°12' E 028°45'4 8.1
2018-Apr-20 13:30N 60°16' E 028°48'5 9.3
2018-Apr-20 13:00N 60°20' E 028°42'1 1.0
2018-Apr-20 12:28N 60°20' E 028°42'0 0.0
2018-Apr-20 11:55N 60°20' E 028°42'0 0.0
2018-Apr-20 11:28N 60°20' E 028°42'0 0.0
2018-Apr-20 10:58N 60°20' E 028°42'0 0.0
2018-Apr-20 10:28N 60°20' E 028°42'0 0.0
2018-Apr-20 09:58N 60°20' E 028°42'0 0.0
2018-Apr-20 09:22N 60°20' E 028°42'0 0.0
2018-Apr-20 08:58N 60°20' E 028°42'0 0.0
2018-Apr-20 08:25N 60°20' E 028°42'0 0.0
2018-Apr-20 07:58N 60°20' E 028°42'0 0.0
2018-Apr-20 07:28N 60°20' E 028°42'0 0.0
2018-Apr-20 06:55N 60°20' E 028°42'0 0.0
2018-Apr-20 06:25N 60°20' E 028°42'0 0.0
2018-Apr-20 05:55N 60°20' E 028°42'0 0.0
2018-Apr-20 05:22N 60°20' E 028°42'0 0.0
2018-Apr-20 04:58N 60°20' E 028°42'0 0.0
2018-Apr-20 04:28N 60°20' E 028°42'0 0.0
2018-Apr-20 03:52N 60°20' E 028°42'0 0.0
2018-Apr-20 03:25N 60°20' E 028°42'0 0.0
2018-Apr-20 02:52N 60°20' E 028°42'0 0.0
2018-Apr-20 02:10N 60°20' E 028°42'0 0.0
2018-Apr-20 01:43N 60°20' E 028°42'0 0.0
2018-Apr-20 01:25N 60°20' E 028°42'0 0.0
2018-Apr-20 00:49N 60°20' E 028°42'0 0.0
2018-Apr-20 00:28N 60°20' E 028°42'0 0.0
2018-Apr-19 23:58N 60°20' E 028°42'0 0.0
2018-Apr-19 23:28N 60°20' E 028°42'0 0.0
2018-Apr-19 22:58N 60°20' E 028°42'0 0.0
2018-Apr-19 22:28N 60°20' E 028°42'0 0.0
2018-Apr-19 21:58N 60°20' E 028°42'0 0.0
2018-Apr-19 21:28N 60°20' E 028°42'0 0.0
2018-Apr-19 20:52N 60°20' E 028°42'0 0.0
2018-Apr-19 20:28N 60°20' E 028°42'0 0.0
2018-Apr-19 19:58N 60°20' E 028°42'0 0.0
2018-Apr-19 19:25N 60°20' E 028°42'0 0.0
2018-Apr-19 18:58N 60°20' E 028°42'0 0.0
2018-Apr-19 18:25N 60°20' E 028°42'0 0.0
2018-Apr-19 17:58N 60°20' E 028°42'0 0.0
2018-Apr-19 17:28N 60°20' E 028°42'0 0.0
2018-Apr-19 16:55N 60°20' E 028°42'0 0.0
2018-Apr-19 16:28N 60°20' E 028°42'0 0.0
2018-Apr-19 15:58N 60°20' E 028°42'0 0.0
2018-Apr-19 15:28N 60°20' E 028°42'0 0.0
2018-Apr-19 14:58N 60°20' E 028°42'0 0.0
2018-Apr-19 14:28N 60°20' E 028°42'0 0.0
2018-Apr-19 13:58N 60°20' E 028°42'0 0.0
2018-Apr-19 13:28N 60°20' E 028°42'0 0.0
2018-Apr-19 12:58N 60°20' E 028°42'0 0.0
2018-Apr-19 12:28N 60°20' E 028°42'0 0.0
2018-Apr-19 11:58N 60°20' E 028°42'0 0.0
2018-Apr-19 11:28N 60°20' E 028°42'0 0.0
2018-Apr-19 10:58N 60°20' E 028°42'0 0.0
2018-Apr-19 10:28N 60°20' E 028°42'0 0.0
2018-Apr-19 09:56N 60°20' E 028°42'0 0.4
2018-Apr-19 09:31N 60°20' E 028°42'2 4.3
2018-Apr-19 09:00N 60°18' E 028°44'5 9.3
2018-Apr-19 08:30N 60°14' E 028°47'4 8.8
2018-Apr-19 08:00N 60°10' E 028°41'713.1
2018-Apr-19 07:30N 60°07' E 028°30'611.4
2018-Apr-19 07:00N 60°06' E 028°18'713.7
2018-Apr-19 06:30N 60°08' E 028°05'713.8
2018-Apr-19 06:00N 60°10' E 027°52'612.8
2018-Apr-19 05:30N 60°09' E 027°39'611.8
2018-Apr-19 05:01N 60°06' E 027°29'510.2
2018-Apr-19 04:30N 60°03' E 027°20'510.4
2018-Apr-19 04:01N 60°01' E 027°11'4 8.4
2018-Apr-19 03:31N 60°02' E 027°03'1 1.1
2018-Apr-19 02:58N 60°01' E 027°03'0 0.1
2018-Apr-19 02:28N 60°01' E 027°03'0 0.1
2018-Apr-19 01:58N 60°01' E 027°03'0 0.0
2018-Apr-19 01:28N 60°01' E 027°03'0 0.1
2018-Apr-19 00:58N 60°01' E 027°03'0 0.0
2018-Apr-19 00:28N 60°01' E 027°03'0 0.0
2018-Apr-18 23:58N 60°01' E 027°03'0 0.0
2018-Apr-18 23:28N 60°01' E 027°03'0 0.1
2018-Apr-18 22:58N 60°01' E 027°03'0 0.0
2018-Apr-18 22:28N 60°01' E 027°03'0 0.1
2018-Apr-18 21:55N 60°01' E 027°03'0 0.0
2018-Apr-18 21:28N 60°01' E 027°03'0 0.0
2018-Apr-18 20:58N 60°01' E 027°03'0 0.0
2018-Apr-18 20:28N 60°01' E 027°03'0 0.1
2018-Apr-18 19:58N 60°01' E 027°03'0 0.1
2018-Apr-18 19:28N 60°01' E 027°03'0 0.0
2018-Apr-18 18:58N 60°01' E 027°03'0 0.1
2018-Apr-18 18:28N 60°01' E 027°03'0 0.0
2018-Apr-18 17:58N 60°01' E 027°03'0 0.0
2018-Apr-18 17:28N 60°01' E 027°03'0 0.0
2018-Apr-18 16:58N 60°01' E 027°03'0 0.0
2018-Apr-18 16:28N 60°01' E 027°03'0 0.0
2018-Apr-18 15:58N 60°01' E 027°03'0 0.0
2018-Apr-18 15:28N 60°01' E 027°03'0 0.0
2018-Apr-18 14:58N 60°01' E 027°03'0 0.0
2018-Apr-18 14:28N 60°01' E 027°03'0 0.0
2018-Apr-18 13:58N 60°01' E 027°03'0 0.0
2018-Apr-18 13:28N 60°01' E 027°03'0 0.1
2018-Apr-18 12:58N 60°01' E 027°03'0 0.4
2018-Apr-18 12:29N 60°01' E 027°03'2 4.3
2018-Apr-18 12:00N 59°59' E 027°05'5 8.2
2018-Apr-18 11:26N 59°59' E 026°56'410.2
2018-Apr-18 11:00N 59°59' E 026°47'510.1
2018-Apr-18 10:30N 59°59' E 026°37'5 9.7
2018-Apr-18 10:00N 59°58' E 026°27'5 9.5
2018-Apr-18 09:30N 59°56' E 026°18'25 9.3
2018-Apr-18 06:49N 59°50' E 025°30'3 9.3
2018-Apr-18 06:30N 59°49' E 025°24'5 9.2
2018-Apr-18 05:59N 59°48' E 025°15'4 9.0
2018-Apr-18 05:30N 59°47' E 025°06'4 8.2
2018-Apr-18 05:01N 59°47' E 024°59'5 9.7
2018-Apr-18 04:30N 59°46' E 024°49'5 9.6
2018-Apr-18 04:00N 59°45' E 024°40'5 9.6
2018-Apr-18 03:30N 59°44' E 024°30'5 9.7
2018-Apr-18 03:00N 59°43' E 024°21'5 9.6
2018-Apr-18 02:30N 59°41' E 024°12'5 9.4
2018-Apr-18 02:00N 59°40' E 024°03'5 9.5
2018-Apr-18 01:30N 59°38' E 023°54'5 9.7
2018-Apr-18 01:00N 59°37' E 023°45'5 9.7
2018-Apr-18 00:30N 59°35' E 023°36'5 9.8
2018-Apr-18 00:00N 59°34' E 023°27'5 9.6
2018-Apr-17 23:30N 59°32' E 023°18'5 9.6
2018-Apr-17 23:00N 59°31' E 023°09'9 9.6
2018-Apr-17 22:02N 59°28' E 022°52'0 9.4
2018-Apr-17 22:00N 59°28' E 022°51'5 9.2
2018-Apr-17 21:27N 59°26' E 022°42'218 8.8
2018-Apr-16 20:46N 56°41' E 018°13'4 8.7
2018-Apr-16 20:16N 56°38' E 018°06'3 8.8
2018-Apr-16 19:55N 56°36' E 018°02'4 8.7
2018-Apr-16 19:27N 56°34' E 017°56'11 8.6
2018-Apr-16 18:10N 56°27' E 017°41'1 8.6
2018-Apr-16 18:00N 56°26' E 017°39'4 8.7
2018-Apr-16 17:30N 56°23' E 017°32'4 8.9
2018-Apr-16 17:00N 56°21' E 017°26'12 9.0
2018-Apr-16 15:40N 56°13' E 017°09'5 8.8
2018-Apr-16 15:07N 56°10' E 017°02'1 8.7
2018-Apr-16 15:00N 56°09' E 017°01'4 8.8
2018-Apr-16 14:30N 56°07' E 016°55'4 8.8
2018-Apr-16 14:00N 56°04' E 016°48'4 8.8
2018-Apr-16 13:30N 56°02' E 016°42'4 8.7
2018-Apr-16 13:00N 55°59' E 016°35'4 8.5
2018-Apr-16 12:30N 55°57' E 016°29'4 8.3
2018-Apr-16 12:00N 55°55' E 016°22'4 8.6
2018-Apr-16 11:30N 55°53' E 016°15'4 8.6
2018-Apr-16 11:00N 55°51' E 016°09'4 8.6
2018-Apr-16 10:30N 55°49' E 016°02'4 8.5
2018-Apr-16 10:00N 55°47' E 015°55'4 8.5
2018-Apr-16 09:30N 55°45' E 015°49'4 8.7
2018-Apr-16 09:00N 55°43' E 015°42'5 9.0
2018-Apr-16 08:30N 55°41' E 015°35'5 9.3
2018-Apr-16 08:00N 55°39' E 015°28'4 7.7
2018-Apr-16 07:30N 55°37' E 015°22'5 9.8
2018-Apr-16 07:00N 55°35' E 015°14'510.9
2018-Apr-16 06:30N 55°32' E 015°05'611.2
2018-Apr-16 06:00N 55°29' E 014°57'611.2
2018-Apr-16 05:30N 55°27' E 014°48'611.1
2018-Apr-16 05:00N 55°24' E 014°39'511.0
2018-Apr-16 04:30N 55°20' E 014°33'610.9
2018-Apr-16 04:00N 55°16' E 014°26'510.8
2018-Apr-16 03:30N 55°12' E 014°20'510.3
2018-Apr-16 03:00N 55°10' E 014°12'611.2
2018-Apr-16 02:30N 55°10' E 014°02'1211.0
2018-Apr-16 01:24N 55°11' E 013°41'510.9
2018-Apr-16 00:54N 55°12' E 013°32'410.8
2018-Apr-16 00:30N 55°13' E 013°24'510.9
2018-Apr-16 00:00N 55°13' E 013°15'611.2
2018-Apr-15 23:30N 55°14' E 013°05'511.0
2018-Apr-15 23:00N 55°15' E 012°56'610.9
2018-Apr-15 22:30N 55°16' E 012°46'510.4
2018-Apr-15 22:00N 55°18' E 012°38'510.9
2018-Apr-15 21:30N 55°23' E 012°39'611.0
2018-Apr-15 21:00N 55°29' E 012°42'4 8.8
2018-Apr-15 20:30N 55°32' E 012°46'5 9.8
2018-Apr-15 20:00N 55°36' E 012°52'510.2
2018-Apr-15 19:30N 55°41' E 012°55'713.9
2018-Apr-15 19:00N 55°47' E 012°49'613.0
2018-Apr-15 18:30N 55°53' E 012°44'713.0
2018-Apr-15 18:00N 55°59' E 012°41'611.9
2018-Apr-15 17:30N 56°04' E 012°37'510.5
2018-Apr-15 17:00N 56°08' E 012°29'510.1
2018-Apr-15 16:30N 56°10' E 012°22'5211.2
2018-Apr-15 11:54N 56°58' E 011°44'511.5
2018-Apr-15 11:30N 57°02' E 011°41'511.0
2018-Apr-15 11:00N 57°07' E 011°37'510.6
2018-Apr-15 10:30N 57°12' E 011°34'611.0
2018-Apr-15 10:00N 57°17' E 011°31'611.2
2018-Apr-15 09:30N 57°22' E 011°27'611.3
2018-Apr-15 09:00N 57°28' E 011°23'611.1
2018-Apr-15 08:30N 57°33' E 011°20'510.7
2018-Apr-15 08:00N 57°38' E 011°16'510.9
2018-Apr-15 07:30N 57°43' E 011°13'611.1
2018-Apr-15 07:00N 57°48' E 011°10'510.9
2018-Apr-15 06:30N 57°54' E 011°07'611.2
2018-Apr-15 06:00N 57°59' E 011°07'611.3
2018-Apr-15 05:30N 58°05' E 011°07'611.1
2018-Apr-15 05:00N 58°10' E 011°07'510.7
2018-Apr-15 04:30N 58°15' E 011°12'5 9.9
2018-Apr-15 04:00N 58°18' E 011°20'4 6.6
2018-Apr-15 03:27N 58°21' E 011°24'0 0.0
2018-Apr-14 01:04N 58°21' E 011°24'0 0.6
2018-Apr-14 00:58N 58°21' E 011°24'1 1.5
2018-Apr-14 00:30N 58°20' E 011°23'2 3.1
2018-Apr-14 00:00N 58°19' E 011°21'5 9.3
2018-Apr-13 23:30N 58°16' E 011°15'5 9.7
2018-Apr-13 23:00N 58°12' E 011°10'2 3.1
2018-Apr-13 22:30N 58°10' E 011°10'0 0.3
2018-Apr-13 21:59N 58°10' E 011°10'0 0.0
2018-Apr-13 21:26N 58°10' E 011°10'0 0.0
2018-Apr-13 20:59N 58°10' E 011°10'0 0.0
2018-Apr-13 20:26N 58°10' E 011°10'0 0.0
2018-Apr-13 19:59N 58°10' E 011°10'0 0.1
2018-Apr-13 19:17N 58°10' E 011°10'0 0.1
2018-Apr-13 18:59N 58°10' E 011°10'0 0.2
2018-Apr-13 18:26N 58°10' E 011°10'0 0.1
2018-Apr-13 17:59N 58°10' E 011°10'0 0.0
2018-Apr-13 17:29N 58°10' E 011°10'0 0.0
2018-Apr-13 16:56N 58°10' E 011°10'0 0.0
2018-Apr-13 16:29N 58°10' E 011°10'0 0.0
2018-Apr-13 15:59N 58°10' E 011°10'0 0.0
2018-Apr-13 15:26N 58°10' E 011°10'0 0.0
2018-Apr-13 14:44N 58°10' E 011°10'0 0.0
2018-Apr-13 14:29N 58°10' E 011°10'0 0.0
2018-Apr-13 13:56N 58°10' E 011°10'0 0.0
2018-Apr-13 13:29N 58°10' E 011°10'  
Track history (hours):
 
Tides and Currents Weather Stations Pressure Air Temp Water Temp Dewpoint Dewpoint Depression Visibility Wind Speed Wind Dir Waves Ship Positions

Pelagos

Last reported at 2018-Apr-23 13:07 UTC. Time now 2018-Apr-23 17:36 UTC.
Position N 55°23' E 011°02'.

; draft 14 m.

Type: Ship (hazmat cat C). MMSI: 240335000.

Date/timePositionNaut miles runAvg speedWind from/ knotsBaromVisibWave heightAir tempDewpointWater temp
2018-Apr-23 13:07N 55°23' E 011°02'212.3
2018-Apr-23 12:59N 55°21' E 011°02'612.1
2018-Apr-23 12:30N 55°15' E 011°05'510.5
2018-Apr-23 12:00N 55°10' E 011°02'612.0
2018-Apr-23 11:30N 55°05' E 010°59'612.0
2018-Apr-23 11:01N 54°59' E 010°58'510.4
2018-Apr-23 10:30N 54°55' E 010°52'510.5
2018-Apr-23 10:00N 54°50' E 010°50'612.1
2018-Apr-23 09:30N 54°44' E 010°47'510.0
2018-Apr-23 09:00N 54°39' E 010°50'611.8
2018-Apr-23 08:30N 54°36' E 010°59'612.1
2018-Apr-23 08:00N 54°36' E 011°09'612.3
2018-Apr-23 07:30N 54°34' E 011°19'612.1
2018-Apr-23 07:00N 54°31' E 011°28'612.1
2018-Apr-23 06:30N 54°28' E 011°38'611.9
2018-Apr-23 05:58N 54°26' E 011°48'612.1
2018-Apr-23 05:30N 54°26' E 011°58'612.0
2018-Apr-23 04:59N 54°26' E 012°09'510.8
2018-Apr-23 04:30N 54°31' E 012°13'5410.7
2018-Apr-22 23:27N 54°58' E 013°34'610.6
2018-Apr-22 22:50N 55°01' E 013°45'510.9
2018-Apr-22 22:20N 55°02' E 013°54'511.0
2018-Apr-22 21:53N 55°04' E 014°02'410.2
2018-Apr-22 21:30N 55°07' E 014°07'510.5
2018-Apr-22 21:00N 55°11' E 014°13'610.7
2018-Apr-22 20:29N 55°15' E 014°19'511.1
2018-Apr-22 20:00N 55°19' E 014°25'611.1
2018-Apr-22 19:30N 55°23' E 014°31'510.7
2018-Apr-22 19:00N 55°27' E 014°38'611.1
2018-Apr-22 18:30N 55°30' E 014°46'611.2
2018-Apr-22 18:00N 55°32' E 014°55'511.0
2018-Apr-22 17:31N 55°35' E 015°04'511.0
2018-Apr-22 17:01N 55°37' E 015°13'611.1
2018-Apr-22 16:31N 55°39' E 015°22'611.1
2018-Apr-22 16:00N 55°41' E 015°31'510.6
2018-Apr-22 15:30N 55°42' E 015°41'510.7
2018-Apr-22 15:00N 55°43' E 015°50'511.0
2018-Apr-22 14:30N 55°44' E 015°59'510.9
2018-Apr-22 14:01N 55°45' E 016°09'510.9
2018-Apr-22 13:31N 55°47' E 016°18'611.0
2018-Apr-22 13:01N 55°48' E 016°27'511.0
2018-Apr-22 12:31N 55°49' E 016°37'510.8
2018-Apr-22 12:01N 55°51' E 016°46'510.7
2018-Apr-22 11:30N 55°52' E 016°55'510.7
2018-Apr-22 11:01N 55°54' E 017°05'29410.4
2018-Apr-21 06:42N 59°36' E 023°05'310.5
2018-Apr-21 06:27N 59°37' E 023°10'510.6
2018-Apr-21 06:00N 59°38' E 023°19'510.7
2018-Apr-21 05:31N 59°39' E 023°29'610.9
2018-Apr-21 05:00N 59°41' E 023°40'510.7
2018-Apr-21 04:31N 59°42' E 023°50'510.3
2018-Apr-21 04:00N 59°44' E 023°60'610.5
2018-Apr-21 03:27N 59°45' E 024°11'510.6
2018-Apr-21 03:00N 59°47' E 024°20'510.5
2018-Apr-21 02:30N 59°48' E 024°30'510.4
2018-Apr-21 02:00N 59°49' E 024°40'510.3
2018-Apr-21 01:30N 59°50' E 024°50'510.3
2018-Apr-21 01:00N 59°51' E 024°60'510.3
2018-Apr-21 00:30N 59°52' E 025°10'510.3
2018-Apr-21 00:00N 59°53' E 025°20'2710.7
2018-Apr-20 21:31N 59°58' E 026°12'011.0
2018-Apr-20 21:30N 59°58' E 026°12'611.1
2018-Apr-20 21:00N 59°60' E 026°23'510.6
2018-Apr-20 20:30N 60°01' E 026°33'510.5
2018-Apr-20 20:01N 60°01' E 026°44'510.9
2018-Apr-20 19:31N 59°60' E 026°54'510.6
2018-Apr-20 19:00N 59°60' E 027°05'510.9
2018-Apr-20 18:30N 60°03' E 027°14'611.1
2018-Apr-20 18:00N 60°06' E 027°24'611.3
2018-Apr-20 17:30N 60°08' E 027°33'611.2
2018-Apr-20 17:00N 60°11' E 027°43'510.4
2018-Apr-20 16:30N 60°11' E 027°53'611.4
2018-Apr-20 16:00N 60°10' E 028°04'611.3
2018-Apr-20 15:30N 60°08' E 028°15'510.1
2018-Apr-20 15:00N 60°08' E 028°26'611.1
2018-Apr-20 14:30N 60°09' E 028°36'510.2
2018-Apr-20 14:00N 60°12' E 028°45'4 8.1
2018-Apr-20 13:30N 60°16' E 028°48'5 9.3
2018-Apr-20 13:00N 60°20' E 028°42'1 1.0
2018-Apr-20 12:28N 60°20' E 028°42'0 0.0
2018-Apr-20 11:55N 60°20' E 028°42'0 0.0
2018-Apr-20 11:28N 60°20' E 028°42'0 0.0
2018-Apr-20 10:58N 60°20' E 028°42'0 0.0
2018-Apr-20 10:28N 60°20' E 028°42'0 0.0
2018-Apr-20 09:58N 60°20' E 028°42'0 0.0
2018-Apr-20 09:22N 60°20' E 028°42'0 0.0
2018-Apr-20 08:58N 60°20' E 028°42'0 0.0
2018-Apr-20 08:25N 60°20' E 028°42'0 0.0
2018-Apr-20 07:58N 60°20' E 028°42'0 0.0
2018-Apr-20 07:28N 60°20' E 028°42'0 0.0
2018-Apr-20 06:55N 60°20' E 028°42'0 0.0
2018-Apr-20 06:25N 60°20' E 028°42'0 0.0
2018-Apr-20 05:55N 60°20' E 028°42'0 0.0
2018-Apr-20 05:22N 60°20' E 028°42'0 0.0
2018-Apr-20 04:58N 60°20' E 028°42'0 0.0
2018-Apr-20 04:28N 60°20' E 028°42'0 0.0
2018-Apr-20 03:52N 60°20' E 028°42'0 0.0
2018-Apr-20 03:25N 60°20' E 028°42'0 0.0
2018-Apr-20 02:52N 60°20' E 028°42'0 0.0
2018-Apr-20 02:10N 60°20' E 028°42'0 0.0
2018-Apr-20 01:43N 60°20' E 028°42'0 0.0
2018-Apr-20 01:25N 60°20' E 028°42'0 0.0
2018-Apr-20 00:49N 60°20' E 028°42'0 0.0
2018-Apr-20 00:28N 60°20' E 028°42'0 0.0
2018-Apr-19 23:58N 60°20' E 028°42'0 0.0
2018-Apr-19 23:28N 60°20' E 028°42'0 0.0
2018-Apr-19 22:58N 60°20' E 028°42'0 0.0
2018-Apr-19 22:28N 60°20' E 028°42'0 0.0
2018-Apr-19 21:58N 60°20' E 028°42'0 0.0
2018-Apr-19 21:28N 60°20' E 028°42'0 0.0
2018-Apr-19 20:52N 60°20' E 028°42'0 0.0
2018-Apr-19 20:28N 60°20' E 028°42'0 0.0
2018-Apr-19 19:58N 60°20' E 028°42'0 0.0
2018-Apr-19 19:25N 60°20' E 028°42'0 0.0
2018-Apr-19 18:58N 60°20' E 028°42'0 0.0
2018-Apr-19 18:25N 60°20' E 028°42'0 0.0
2018-Apr-19 17:58N 60°20' E 028°42'0 0.0
2018-Apr-19 17:28N 60°20' E 028°42'0 0.0
2018-Apr-19 16:55N 60°20' E 028°42'0 0.0
2018-Apr-19 16:28N 60°20' E 028°42'0 0.0
2018-Apr-19 15:58N 60°20' E 028°42'0 0.0
2018-Apr-19 15:28N 60°20' E 028°42'0 0.0
2018-Apr-19 14:58N 60°20' E 028°42'0 0.0
2018-Apr-19 14:28N 60°20' E 028°42'0 0.0
2018-Apr-19 13:58N 60°20' E 028°42'0 0.0
2018-Apr-19 13:28N 60°20' E 028°42'0 0.0
2018-Apr-19 12:58N 60°20' E 028°42'0 0.0
2018-Apr-19 12:28N 60°20' E 028°42'0 0.0
2018-Apr-19 11:58N 60°20' E 028°42'0 0.0
2018-Apr-19 11:28N 60°20' E 028°42'0 0.0
2018-Apr-19 10:58N 60°20' E 028°42'0 0.0
2018-Apr-19 10:28N 60°20' E 028°42'0 0.0
2018-Apr-19 09:56N 60°20' E 028°42'0 0.4
2018-Apr-19 09:31N 60°20' E 028°42'2 4.3
2018-Apr-19 09:00N 60°18' E 028°44'5 9.3
2018-Apr-19 08:30N 60°14' E 028°47'4 8.8
2018-Apr-19 08:00N 60°10' E 028°41'713.1
2018-Apr-19 07:30N 60°07' E 028°30'611.4
2018-Apr-19 07:00N 60°06' E 028°18'713.7
2018-Apr-19 06:30N 60°08' E 028°05'713.8
2018-Apr-19 06:00N 60°10' E 027°52'612.8
2018-Apr-19 05:30N 60°09' E 027°39'611.8
2018-Apr-19 05:01N 60°06' E 027°29'510.2
2018-Apr-19 04:30N 60°03' E 027°20'510.4
2018-Apr-19 04:01N 60°01' E 027°11'4 8.4
2018-Apr-19 03:31N 60°02' E 027°03'1 1.1
2018-Apr-19 02:58N 60°01' E 027°03'0 0.1
2018-Apr-19 02:28N 60°01' E 027°03'0 0.1
2018-Apr-19 01:58N 60°01' E 027°03'0 0.0
2018-Apr-19 01:28N 60°01' E 027°03'0 0.1
2018-Apr-19 00:58N 60°01' E 027°03'0 0.0
2018-Apr-19 00:28N 60°01' E 027°03'0 0.0
2018-Apr-18 23:58N 60°01' E 027°03'0 0.0
2018-Apr-18 23:28N 60°01' E 027°03'0 0.1
2018-Apr-18 22:58N 60°01' E 027°03'0 0.0
2018-Apr-18 22:28N 60°01' E 027°03'0 0.1
2018-Apr-18 21:55N 60°01' E 027°03'0 0.0
2018-Apr-18 21:28N 60°01' E 027°03'0 0.0
2018-Apr-18 20:58N 60°01' E 027°03'0 0.0
2018-Apr-18 20:28N 60°01' E 027°03'0 0.1
2018-Apr-18 19:58N 60°01' E 027°03'0 0.1
2018-Apr-18 19:28N 60°01' E 027°03'0 0.0
2018-Apr-18 18:58N 60°01' E 027°03'0 0.1
2018-Apr-18 18:28N 60°01' E 027°03'0 0.0
2018-Apr-18 17:58N 60°01' E 027°03'0 0.0
2018-Apr-18 17:28N 60°01' E 027°03'0 0.0
2018-Apr-18 16:58N 60°01' E 027°03'0 0.0
2018-Apr-18 16:28N 60°01' E 027°03'0 0.0
2018-Apr-18 15:58N 60°01' E 027°03'0 0.0
2018-Apr-18 15:28N 60°01' E 027°03'0 0.0
2018-Apr-18 14:58N 60°01' E 027°03'0 0.0
2018-Apr-18 14:28N 60°01' E 027°03'0 0.0
2018-Apr-18 13:58N 60°01' E 027°03'0 0.0
2018-Apr-18 13:28N 60°01' E 027°03'0 0.1
2018-Apr-18 12:58N 60°01' E 027°03'0 0.4
2018-Apr-18 12:29N 60°01' E 027°03'2 4.3
2018-Apr-18 12:00N 59°59' E 027°05'5 8.2
2018-Apr-18 11:26N 59°59' E 026°56'410.2
2018-Apr-18 11:00N 59°59' E 026°47'510.1
2018-Apr-18 10:30N 59°59' E 026°37'5 9.7
2018-Apr-18 10:00N 59°58' E 026°27'5 9.5
2018-Apr-18 09:30N 59°56' E 026°18'25 9.3
2018-Apr-18 06:49N 59°50' E 025°30'3 9.3
2018-Apr-18 06:30N 59°49' E 025°24'5 9.2
2018-Apr-18 05:59N 59°48' E 025°15'4 9.0
2018-Apr-18 05:30N 59°47' E 025°06'4 8.2
2018-Apr-18 05:01N 59°47' E 024°59'5 9.7
2018-Apr-18 04:30N 59°46' E 024°49'5 9.6
2018-Apr-18 04:00N 59°45' E 024°40'5 9.6
2018-Apr-18 03:30N 59°44' E 024°30'5 9.7
2018-Apr-18 03:00N 59°43' E 024°21'5 9.6
2018-Apr-18 02:30N 59°41' E 024°12'5 9.4
2018-Apr-18 02:00N 59°40' E 024°03'5 9.5
2018-Apr-18 01:30N 59°38' E 023°54'5 9.7
2018-Apr-18 01:00N 59°37' E 023°45'5 9.7
2018-Apr-18 00:30N 59°35' E 023°36'5 9.8
2018-Apr-18 00:00N 59°34' E 023°27'5 9.6
2018-Apr-17 23:30N 59°32' E 023°18'5 9.6
2018-Apr-17 23:00N 59°31' E 023°09'9 9.6
2018-Apr-17 22:02N 59°28' E 022°52'0 9.4
2018-Apr-17 22:00N 59°28' E 022°51'5 9.2
2018-Apr-17 21:27N 59°26' E 022°42'218 8.8
2018-Apr-16 20:46N 56°41' E 018°13'4 8.7
2018-Apr-16 20:16N 56°38' E 018°06'3 8.8
2018-Apr-16 19:55N 56°36' E 018°02'4 8.7
2018-Apr-16 19:27N 56°34' E 017°56'11 8.6
2018-Apr-16 18:10N 56°27' E 017°41'1 8.6
2018-Apr-16 18:00N 56°26' E 017°39'4 8.7
2018-Apr-16 17:30N 56°23' E 017°32'4 8.9
2018-Apr-16 17:00N 56°21' E 017°26'12 9.0
2018-Apr-16 15:40N 56°13' E 017°09'5 8.8
2018-Apr-16 15:07N 56°10' E 017°02'1 8.7
2018-Apr-16 15:00N 56°09' E 017°01'4 8.8
2018-Apr-16 14:30N 56°07' E 016°55'4 8.8
2018-Apr-16 14:00N 56°04' E 016°48'4 8.8
2018-Apr-16 13:30N 56°02' E 016°42'4 8.7
2018-Apr-16 13:00N 55°59' E 016°35'4 8.5
2018-Apr-16 12:30N 55°57' E 016°29'4 8.3
2018-Apr-16 12:00N 55°55' E 016°22'4 8.6
2018-Apr-16 11:30N 55°53' E 016°15'4 8.6
2018-Apr-16 11:00N 55°51' E 016°09'4 8.6
2018-Apr-16 10:30N 55°49' E 016°02'4 8.5
2018-Apr-16 10:00N 55°47' E 015°55'4 8.5
2018-Apr-16 09:30N 55°45' E 015°49'4 8.7
2018-Apr-16 09:00N 55°43' E 015°42'5 9.0
2018-Apr-16 08:30N 55°41' E 015°35'5 9.3
2018-Apr-16 08:00N 55°39' E 015°28'4 7.7
2018-Apr-16 07:30N 55°37' E 015°22'5 9.8
2018-Apr-16 07:00N 55°35' E 015°14'510.9
2018-Apr-16 06:30N 55°32' E 015°05'611.2
2018-Apr-16 06:00N 55°29' E 014°57'611.2
2018-Apr-16 05:30N 55°27' E 014°48'611.1
2018-Apr-16 05:00N 55°24' E 014°39'511.0
2018-Apr-16 04:30N 55°20' E 014°33'610.9
2018-Apr-16 04:00N 55°16' E 014°26'510.8
2018-Apr-16 03:30N 55°12' E 014°20'510.3
2018-Apr-16 03:00N 55°10' E 014°12'611.2
2018-Apr-16 02:30N 55°10' E 014°02'1211.0
2018-Apr-16 01:24N 55°11' E 013°41'510.9
2018-Apr-16 00:54N 55°12' E 013°32'410.8
2018-Apr-16 00:30N 55°13' E 013°24'510.9
2018-Apr-16 00:00N 55°13' E 013°15'611.2
2018-Apr-15 23:30N 55°14' E 013°05'511.0
2018-Apr-15 23:00N 55°15' E 012°56'610.9
2018-Apr-15 22:30N 55°16' E 012°46'510.4
2018-Apr-15 22:00N 55°18' E 012°38'510.9
2018-Apr-15 21:30N 55°23' E 012°39'611.0
2018-Apr-15 21:00N 55°29' E 012°42'4 8.8
2018-Apr-15 20:30N 55°32' E 012°46'5 9.8
2018-Apr-15 20:00N 55°36' E 012°52'510.2
2018-Apr-15 19:30N 55°41' E 012°55'713.9
2018-Apr-15 19:00N 55°47' E 012°49'613.0
2018-Apr-15 18:30N 55°53' E 012°44'713.0
2018-Apr-15 18:00N 55°59' E 012°41'611.9
2018-Apr-15 17:30N 56°04' E 012°37'510.5
2018-Apr-15 17:00N 56°08' E 012°29'510.1
2018-Apr-15 16:30N 56°10' E 012°22'5211.2
2018-Apr-15 11:54N 56°58' E 011°44'511.5
2018-Apr-15 11:30N 57°02' E 011°41'511.0
2018-Apr-15 11:00N 57°07' E 011°37'510.6
2018-Apr-15 10:30N 57°12' E 011°34'611.0
2018-Apr-15 10:00N 57°17' E 011°31'611.2
2018-Apr-15 09:30N 57°22' E 011°27'611.3
2018-Apr-15 09:00N 57°28' E 011°23'611.1
2018-Apr-15 08:30N 57°33' E 011°20'510.7
2018-Apr-15 08:00N 57°38' E 011°16'510.9
2018-Apr-15 07:30N 57°43' E 011°13'611.1
2018-Apr-15 07:00N 57°48' E 011°10'510.9
2018-Apr-15 06:30N 57°54' E 011°07'611.2
2018-Apr-15 06:00N 57°59' E 011°07'611.3
2018-Apr-15 05:30N 58°05' E 011°07'611.1
2018-Apr-15 05:00N 58°10' E 011°07'510.7
2018-Apr-15 04:30N 58°15' E 011°12'5 9.9
2018-Apr-15 04:00N 58°18' E 011°20'4 6.6
2018-Apr-15 03:27N 58°21' E 011°24'0 0.0
2018-Apr-14 01:04N 58°21' E 011°24'0 0.6
2018-Apr-14 00:58N 58°21' E 011°24'1 1.5
2018-Apr-14 00:30N 58°20' E 011°23'2 3.1
2018-Apr-14 00:00N 58°19' E 011°21'5 9.3
2018-Apr-13 23:30N 58°16' E 011°15'5 9.7
2018-Apr-13 23:00N 58°12' E 011°10'2 3.1
2018-Apr-13 22:30N 58°10' E 011°10'0 0.3
2018-Apr-13 21:59N 58°10' E 011°10'0 0.0
2018-Apr-13 21:26N 58°10' E 011°10'0 0.0
2018-Apr-13 20:59N 58°10' E 011°10'0 0.0
2018-Apr-13 20:26N 58°10' E 011°10'0 0.0
2018-Apr-13 19:59N 58°10' E 011°10'0 0.1
2018-Apr-13 19:17N 58°10' E 011°10'0 0.1
2018-Apr-13 18:59N 58°10' E 011°10'0 0.2
2018-Apr-13 18:26N 58°10' E 011°10'0 0.1
2018-Apr-13 17:59N 58°10' E 011°10'0 0.0
2018-Apr-13 17:29N 58°10' E 011°10'0 0.0
2018-Apr-13 16:56N 58°10' E 011°10'0 0.0
2018-Apr-13 16:29N 58°10' E 011°10'0 0.0
2018-Apr-13 15:59N 58°10' E 011°10'0 0.0
2018-Apr-13 15:26N 58°10' E 011°10'0 0.0
2018-Apr-13 14:44N 58°10' E 011°10'0 0.0
2018-Apr-13 14:29N 58°10' E 011°10'0 0.0
2018-Apr-13 13:56N 58°10' E 011°10'0 0.0
2018-Apr-13 13:29N 58°10' E 011°10'  

Dump ship's entire track history